| Date | Time | Temp. (oF) | Dew Point (oF) | Rel. Hum. (%) | Press. (in.) | Wind Dir. | Wind Speed (mph) | Hourly Rainfall (in.) |
|
|---|---|---|---|---|---|---|---|---|---|
| 1 | 01/13 | 00:00 | 48 | 48 | 100 | 29.38 | S | 9 | 0.00 |
| 2 | 01/12 | 23:00 | 47 | 46 | 100 | 29.42 | SE | 4 | 0.00 |
| 3 | 01/12 | 22:00 | 46 | 45 | 100 | 29.43 | SSE | 3 | 0.00 |
| 4 | 01/12 | 21:00 | 46 | 45 | 100 | 29.46 | SE | 4 | 0.01 |
| 5 | 01/12 | 20:00 | 46 | 45 | 100 | 29.49 | ESE | 2 | 0.00 |
| 6 | 01/12 | 19:00 | 45 | 45 | 100 | 29.51 | E | 2 | 0.00 |
| 7 | 01/12 | 18:00 | 46 | 45 | 100 | 29.50 | E | 2 | 0.00 |
| 8 | 01/12 | 17:00 | 48 | 47 | 99 | 29.49 | ENE | 1 | 0.00 |
| 9 | 01/12 | 16:00 | 50 | 49 | 97 | 29.48 | ENE | 2 | 0.00 |
| 10 | 01/12 | 15:00 | 51 | 48 | 91 | 29.48 | ESE | 4 | 0.00 |
| 11 | 01/12 | 14:00 | 48 | 48 | 100 | 29.48 | SSE | 2 | 0.00 |
| 12 | 01/12 | 13:00 | 46 | 45 | 100 | 29.47 | S | 3 | 0.00 |
| 13 | 01/12 | 12:00 | 48 | 48 | 100 | 29.48 | SSE | 4 | 0.00 |
| 14 | 01/12 | 11:00 | 46 | 45 | 100 | 29.50 | S | 4 | 0.00 |
| 15 | 01/12 | 10:00 | 45 | 45 | 100 | 29.48 | NE | 5 | 0.02 |
| 16 | 01/12 | 09:00 | 45 | 45 | 100 | 29.47 | SW | 5 | 0.00 |
| 17 | 01/12 | 08:00 | 46 | 45 | 100 | 29.44 | NNE | 1 | 0.00 |
| 18 | 01/12 | 07:00 | 46 | 45 | 100 | 29.43 | WSW | 2 | 0.02 |
| 19 | 01/12 | 06:00 | 45 | 45 | 100 | 29.42 | ENE | 4 | 0.02 |
| 20 | 01/12 | 05:00 | 45 | 45 | 100 | 29.43 | E | 7 | 0.01 |
| 21 | 01/12 | 04:00 | 45 | 45 | 100 | 29.47 | ENE | 5 | 0.07 |
| 22 | 01/12 | 03:00 | 43 | 42 | 100 | 29.50 | E | 10 | 0.05 |
| 23 | 01/12 | 02:00 | 42 | 41 | 100 | 29.53 | ESE | 11 | 0.06 |
| 24 | 01/12 | 01:00 | 42 | 41 | 100 | 29.58 | ESE | 8 | 0.06 |